sensor_id;sensor_type;location;lat;lon;timestamp;temperature;humidity
52381;DHT22;38310;52.796;6.942;2022-12-24T00:01:09;7.20;99.90
52381;DHT22;38310;52.796;6.942;2022-12-24T00:03:38;7.50;99.90
52381;DHT22;38310;52.796;6.942;2022-12-24T00:06:08;7.50;99.90
52381;DHT22;38310;52.796;6.942;2022-12-24T00:08:35;7.50;99.90
52381;DHT22;38310;52.796;6.942;2022-12-24T00:11:01;7.90;99.90
52381;DHT22;38310;52.796;6.942;2022-12-24T00:13:26;7.70;99.90
52381;DHT22;38310;52.796;6.942;2022-12-24T00:15:52;7.90;99.90
52381;DHT22;38310;52.796;6.942;2022-12-24T00:18:18;7.70;99.90
52381;DHT22;38310;52.796;6.942;2022-12-24T00:20:47;7.80;99.90
52381;DHT22;38310;52.796;6.942;2022-12-24T00:23:14;7.90;99.90
52381;DHT22;38310;52.796;6.942;2022-12-24T00:25:40;7.90;99.90
52381;DHT22;38310;52.796;6.942;2022-12-24T00:28:06;7.90;99.90
52381;DHT22;38310;52.796;6.942;2022-12-24T00:30:31;8.00;99.90
52381;DHT22;38310;52.796;6.942;2022-12-24T00:32:57;8.10;99.90
52381;DHT22;38310;52.796;6.942;2022-12-24T00:35:23;8.00;99.90
52381;DHT22;38310;52.796;6.942;2022-12-24T00:37:49;8.10;99.90
52381;DHT22;38310;52.796;6.942;2022-12-24T00:40:18;9.70;99.90
52381;DHT22;38310;52.796;6.942;2022-12-24T00:42:44;8.30;99.90
52381;DHT22;38310;52.796;6.942;2022-12-24T00:45:11;8.50;99.90
52381;DHT22;38310;52.796;6.942;2022-12-24T00:47:39;8.20;99.90
52381;DHT22;38310;52.796;6.942;2022-12-24T00:50:06;8.50;99.90
52381;DHT22;38310;52.796;6.942;2022-12-24T00:52:32;8.40;99.90
52381;DHT22;38310;52.796;6.942;2022-12-24T00:54:57;8.50;99.90
52381;DHT22;38310;52.796;6.942;2022-12-24T00:57:23;8.30;99.90
52381;DHT22;38310;52.796;6.942;2022-12-24T00:59:49;8.20;99.90
52381;DHT22;38310;52.796;6.942;2022-12-24T01:02:14;8.30;99.90
52381;DHT22;38310;52.796;6.942;2022-12-24T01:04:40;8.30;99.90
52381;DHT22;38310;52.796;6.942;2022-12-24T01:07:24;8.30;99.90
52381;DHT22;38310;52.796;6.942;2022-12-24T01:09:50;8.30;99.90
52381;DHT22;38310;52.796;6.942;2022-12-24T01:12:16;8.30;99.90
52381;DHT22;38310;52.796;6.942;2022-12-24T01:14:42;8.40;99.90
52381;DHT22;38310;52.796;6.942;2022-12-24T01:17:08;8.90;99.90
52381;DHT22;38310;52.796;6.942;2022-12-24T01:19:34;8.40;99.90
52381;DHT22;38310;52.796;6.942;2022-12-24T01:21:59;8.40;99.90
52381;DHT22;38310;52.796;6.942;2022-12-24T01:24:25;8.40;99.90
52381;DHT22;38310;52.796;6.942;2022-12-24T01:26:51;8.40;99.90
52381;DHT22;38310;52.796;6.942;2022-12-24T01:29:17;8.50;99.90
52381;DHT22;38310;52.796;6.942;2022-12-24T01:31:42;9.10;99.90
52381;DHT22;38310;52.796;6.942;2022-12-24T01:34:08;8.50;99.90
52381;DHT22;38310;52.796;6.942;2022-12-24T01:36:35;8.40;99.90
52381;DHT22;38310;52.796;6.942;2022-12-24T01:39:01;8.50;99.90
52381;DHT22;38310;52.796;6.942;2022-12-24T01:41:28;8.50;99.90
52381;DHT22;38310;52.796;6.942;2022-12-24T01:44:22;9.40;99.90
52381;DHT22;38310;52.796;6.942;2022-12-24T01:49:24;8.50;99.90
52381;DHT22;38310;52.796;6.942;2022-12-24T01:51:57;8.50;99.90
52381;DHT22;38310;52.796;6.942;2022-12-24T01:54:48;8.50;99.90
52381;DHT22;38310;52.796;6.942;2022-12-24T01:57:29;8.50;99.90
52381;DHT22;38310;52.796;6.942;2022-12-24T02:00:00;8.50;99.90
52381;DHT22;38310;52.796;6.942;2022-12-24T02:02:28;8.50;99.90
52381;DHT22;38310;52.796;6.942;2022-12-24T02:07:20;8.50;99.90
52381;DHT22;38310;52.796;6.942;2022-12-24T02:09:48;8.70;99.90
52381;DHT22;38310;52.796;6.942;2022-12-24T02:12:15;8.50;99.90
52381;DHT22;38310;52.796;6.942;2022-12-24T02:14:41;9.20;99.90
52381;DHT22;38310;52.796;6.942;2022-12-24T02:23:23;8.60;99.90
52381;DHT22;38310;52.796;6.942;2022-12-24T02:26:33;8.60;99.90
52381;DHT22;38310;52.796;6.942;2022-12-24T02:32:14;8.60;99.90
52381;DHT22;38310;52.796;6.942;2022-12-24T02:34:49;8.60;99.90
52381;DHT22;38310;52.796;6.942;2022-12-24T02:37:21;8.70;99.90
52381;DHT22;38310;52.796;6.942;2022-12-24T02:39:55;8.70;99.90
52381;DHT22;38310;52.796;6.942;2022-12-24T02:42:28;8.60;99.90
52381;DHT22;38310;52.796;6.942;2022-12-24T02:45:04;8.60;99.90
52381;DHT22;38310;52.796;6.942;2022-12-24T02:47:32;8.60;99.90
52381;DHT22;38310;52.796;6.942;2022-12-24T02:50:01;8.60;99.90
52381;DHT22;38310;52.796;6.942;2022-12-24T02:52:34;8.60;99.90
52381;DHT22;38310;52.796;6.942;2022-12-24T02:55:13;8.60;99.90
52381;DHT22;38310;52.796;6.942;2022-12-24T02:57:42;8.50;99.90
52381;DHT22;38310;52.796;6.942;2022-12-24T03:00:15;9.20;99.90
52381;DHT22;38310;52.796;6.942;2022-12-24T03:05:50;8.60;99.90
52381;DHT22;38310;52.796;6.942;2022-12-24T03:11:07;8.60;99.90
52381;DHT22;38310;52.796;6.942;2022-12-24T03:13:33;8.60;99.90
52381;DHT22;38310;52.796;6.942;2022-12-24T03:16:03;9.20;99.90
52381;DHT22;38310;52.796;6.942;2022-12-24T03:18:30;8.60;99.90
52381;DHT22;38310;52.796;6.942;2022-12-24T03:21:10;8.60;99.90
52381;DHT22;38310;52.796;6.942;2022-12-24T03:23:36;9.40;99.90
52381;DHT22;38310;52.796;6.942;2022-12-24T03:26:06;8.70;99.90
52381;DHT22;38310;52.796;6.942;2022-12-24T03:28:35;8.60;99.90
52381;DHT22;38310;52.796;6.942;2022-12-24T03:31:03;8.60;99.90
52381;DHT22;38310;52.796;6.942;2022-12-24T03:33:30;8.60;99.90
52381;DHT22;38310;52.796;6.942;2022-12-24T03:35:56;8.80;99.90
52381;DHT22;38310;52.796;6.942;2022-12-24T03:38:22;8.50;99.90
52381;DHT22;38310;52.796;6.942;2022-12-24T03:40:47;8.50;99.90
52381;DHT22;38310;52.796;6.942;2022-12-24T03:43:13;8.90;99.90
52381;DHT22;38310;52.796;6.942;2022-12-24T03:45:40;8.60;99.90
52381;DHT22;38310;52.796;6.942;2022-12-24T03:48:05;8.60;99.90
52381;DHT22;38310;52.796;6.942;2022-12-24T03:50:31;8.60;99.90
52381;DHT22;38310;52.796;6.942;2022-12-24T03:52:57;8.60;99.90
52381;DHT22;38310;52.796;6.942;2022-12-24T03:55:23;8.90;99.90
52381;DHT22;38310;52.796;6.942;2022-12-24T03:57:49;8.60;99.90
52381;DHT22;38310;52.796;6.942;2022-12-24T04:00:15;8.70;99.90
52381;DHT22;38310;52.796;6.942;2022-12-24T04:02:41;8.60;99.90
52381;DHT22;38310;52.796;6.942;2022-12-24T04:05:07;7.90;99.90
52381;DHT22;38310;52.796;6.942;2022-12-24T04:07:35;8.60;99.90
52381;DHT22;38310;52.796;6.942;2022-12-24T04:10:01;8.60;99.90
52381;DHT22;38310;52.796;6.942;2022-12-24T04:12:27;8.70;99.90
52381;DHT22;38310;52.796;6.942;2022-12-24T04:14:53;8.80;99.90
52381;DHT22;38310;52.796;6.942;2022-12-24T04:17:18;8.80;99.90
52381;DHT22;38310;52.796;6.942;2022-12-24T04:19:44;8.70;99.90
52381;DHT22;38310;52.796;6.942;2022-12-24T04:22:10;8.70;99.90
52381;DHT22;38310;52.796;6.942;2022-12-24T04:24:35;8.80;99.90
52381;DHT22;38310;52.796;6.942;2022-12-24T04:27:01;8.80;99.90
52381;DHT22;38310;52.796;6.942;2022-12-24T04:29:27;8.80;99.90
52381;DHT22;38310;52.796;6.942;2022-12-24T04:31:53;8.70;99.90
52381;DHT22;38310;52.796;6.942;2022-12-24T04:34:18;8.70;99.90
52381;DHT22;38310;52.796;6.942;2022-12-24T04:36:44;8.70;99.90
52381;DHT22;38310;52.796;6.942;2022-12-24T04:39:10;8.70;99.90
52381;DHT22;38310;52.796;6.942;2022-12-24T04:41:35;8.70;99.90
52381;DHT22;38310;52.796;6.942;2022-12-24T04:44:01;8.60;99.90
52381;DHT22;38310;52.796;6.942;2022-12-24T04:46:28;8.60;99.90
52381;DHT22;38310;52.796;6.942;2022-12-24T04:48:57;8.70;99.90
52381;DHT22;38310;52.796;6.942;2022-12-24T04:51:24;8.80;99.90
52381;DHT22;38310;52.796;6.942;2022-12-24T04:53:51;9.10;99.90
52381;DHT22;38310;52.796;6.942;2022-12-24T04:56:21;8.70;99.90
52381;DHT22;38310;52.796;6.942;2022-12-24T04:58:48;8.70;99.90
52381;DHT22;38310;52.796;6.942;2022-12-24T05:01:20;8.80;99.90
52381;DHT22;38310;52.796;6.942;2022-12-24T05:03:47;8.70;99.90
52381;DHT22;38310;52.796;6.942;2022-12-24T05:06:15;8.70;99.90
52381;DHT22;38310;52.796;6.942;2022-12-24T05:08:42;8.70;99.90
52381;DHT22;38310;52.796;6.942;2022-12-24T05:11:09;8.70;99.90
52381;DHT22;38310;52.796;6.942;2022-12-24T05:13:35;9.60;99.90
52381;DHT22;38310;52.796;6.942;2022-12-24T05:16:01;8.70;99.90
52381;DHT22;38310;52.796;6.942;2022-12-24T05:18:27;8.80;99.90
52381;DHT22;38310;52.796;6.942;2022-12-24T05:20:53;8.70;99.90
52381;DHT22;38310;52.796;6.942;2022-12-24T05:23:21;9.30;99.90
52381;DHT22;38310;52.796;6.942;2022-12-24T05:26:14;8.70;99.90
52381;DHT22;38310;52.796;6.942;2022-12-24T05:28:47;8.70;99.90
52381;DHT22;38310;52.796;6.942;2022-12-24T05:31:13;8.70;99.90
52381;DHT22;38310;52.796;6.942;2022-12-24T05:33:39;8.70;99.90
52381;DHT22;38310;52.796;6.942;2022-12-24T05:36:05;8.70;99.90
52381;DHT22;38310;52.796;6.942;2022-12-24T05:38:31;8.80;99.90
52381;DHT22;38310;52.796;6.942;2022-12-24T05:40:57;8.80;99.90
52381;DHT22;38310;52.796;6.942;2022-12-24T05:43:22;8.70;99.90
52381;DHT22;38310;52.796;6.942;2022-12-24T05:45:48;8.80;99.90
52381;DHT22;38310;52.796;6.942;2022-12-24T05:48:14;9.70;99.90
52381;DHT22;38310;52.796;6.942;2022-12-24T05:50:39;8.80;99.90
52381;DHT22;38310;52.796;6.942;2022-12-24T05:53:06;8.90;99.90
52381;DHT22;38310;52.796;6.942;2022-12-24T05:55:32;8.80;99.90
52381;DHT22;38310;52.796;6.942;2022-12-24T05:57:58;8.80;99.90
52381;DHT22;38310;52.796;6.942;2022-12-24T06:00:24;8.80;99.90
52381;DHT22;38310;52.796;6.942;2022-12-24T06:02:50;8.80;99.90
52381;DHT22;38310;52.796;6.942;2022-12-24T06:05:16;8.80;99.90
52381;DHT22;38310;52.796;6.942;2022-12-24T06:07:41;8.70;99.90
52381;DHT22;38310;52.796;6.942;2022-12-24T06:10:08;8.80;99.90
52381;DHT22;38310;52.796;6.942;2022-12-24T06:12:34;8.80;99.90
52381;DHT22;38310;52.796;6.942;2022-12-24T06:14:59;8.80;99.90
52381;DHT22;38310;52.796;6.942;2022-12-24T06:17:25;8.80;99.90
52381;DHT22;38310;52.796;6.942;2022-12-24T06:19:51;8.80;99.90
52381;DHT22;38310;52.796;6.942;2022-12-24T06:22:17;9.10;99.90
52381;DHT22;38310;52.796;6.942;2022-12-24T06:24:43;9.20;99.90
52381;DHT22;38310;52.796;6.942;2022-12-24T06:27:08;8.80;99.90
52381;DHT22;38310;52.796;6.942;2022-12-24T06:29:34;8.70;99.90
52381;DHT22;38310;52.796;6.942;2022-12-24T06:32:00;8.70;99.90
52381;DHT22;38310;52.796;6.942;2022-12-24T06:34:26;8.70;99.90
52381;DHT22;38310;52.796;6.942;2022-12-24T06:36:51;8.70;99.90
52381;DHT22;38310;52.796;6.942;2022-12-24T06:39:17;8.70;99.90
52381;DHT22;38310;52.796;6.942;2022-12-24T06:41:43;8.70;99.90
52381;DHT22;38310;52.796;6.942;2022-12-24T06:44:09;8.60;99.90
52381;DHT22;38310;52.796;6.942;2022-12-24T06:46:34;8.70;99.90
52381;DHT22;38310;52.796;6.942;2022-12-24T06:49:00;8.60;99.90
52381;DHT22;38310;52.796;6.942;2022-12-24T06:51:26;8.60;99.90
52381;DHT22;38310;52.796;6.942;2022-12-24T06:53:52;8.60;99.90
52381;DHT22;38310;52.796;6.942;2022-12-24T06:56:19;8.70;99.90
52381;DHT22;38310;52.796;6.942;2022-12-24T06:58:45;8.70;99.90
52381;DHT22;38310;52.796;6.942;2022-12-24T07:01:13;8.70;99.90
52381;DHT22;38310;52.796;6.942;2022-12-24T07:03:39;8.70;99.90
52381;DHT22;38310;52.796;6.942;2022-12-24T07:06:05;9.70;99.90
52381;DHT22;38310;52.796;6.942;2022-12-24T07:08:32;8.70;99.90
52381;DHT22;38310;52.796;6.942;2022-12-24T07:10:59;8.70;99.90
52381;DHT22;38310;52.796;6.942;2022-12-24T07:13:25;9.00;99.90
52381;DHT22;38310;52.796;6.942;2022-12-24T07:16:01;8.60;99.90
52381;DHT22;38310;52.796;6.942;2022-12-24T07:18:28;8.60;99.90
52381;DHT22;38310;52.796;6.942;2022-12-24T07:20:54;8.60;99.90
52381;DHT22;38310;52.796;6.942;2022-12-24T07:23:20;8.50;99.90
52381;DHT22;38310;52.796;6.942;2022-12-24T07:25:46;8.50;99.90
52381;DHT22;38310;52.796;6.942;2022-12-24T07:28:11;8.50;99.90
52381;DHT22;38310;52.796;6.942;2022-12-24T07:30:37;9.20;99.90
52381;DHT22;38310;52.796;6.942;2022-12-24T07:33:03;8.50;99.90
52381;DHT22;38310;52.796;6.942;2022-12-24T07:35:28;8.50;99.90
52381;DHT22;38310;52.796;6.942;2022-12-24T07:37:54;8.50;99.90
52381;DHT22;38310;52.796;6.942;2022-12-24T07:40:20;8.50;99.90
52381;DHT22;38310;52.796;6.942;2022-12-24T07:42:45;8.50;99.90
52381;DHT22;38310;52.796;6.942;2022-12-24T07:45:11;8.40;99.90
52381;DHT22;38310;52.796;6.942;2022-12-24T07:47:37;8.40;99.90
52381;DHT22;38310;52.796;6.942;2022-12-24T07:50:04;8.40;99.90
52381;DHT22;38310;52.796;6.942;2022-12-24T07:52:30;8.30;99.90
52381;DHT22;38310;52.796;6.942;2022-12-24T07:54:56;8.30;99.90
52381;DHT22;38310;52.796;6.942;2022-12-24T07:57:22;8.30;99.90
52381;DHT22;38310;52.796;6.942;2022-12-24T07:59:47;8.70;99.90
52381;DHT22;38310;52.796;6.942;2022-12-24T08:02:13;8.30;99.90
52381;DHT22;38310;52.796;6.942;2022-12-24T08:04:39;8.30;99.90
52381;DHT22;38310;52.796;6.942;2022-12-24T08:07:05;8.00;99.90
52381;DHT22;38310;52.796;6.942;2022-12-24T08:09:35;8.30;99.90
52381;DHT22;38310;52.796;6.942;2022-12-24T08:12:02;8.30;99.90
52381;DHT22;38310;52.796;6.942;2022-12-24T08:14:29;8.30;99.90
52381;DHT22;38310;52.796;6.942;2022-12-24T08:16:54;8.30;99.90
52381;DHT22;38310;52.796;6.942;2022-12-24T08:19:20;8.30;99.90
52381;DHT22;38310;52.796;6.942;2022-12-24T08:21:46;8.30;99.90
52381;DHT22;38310;52.796;6.942;2022-12-24T08:24:12;8.30;99.90
52381;DHT22;38310;52.796;6.942;2022-12-24T08:26:38;8.40;99.90
52381;DHT22;38310;52.796;6.942;2022-12-24T08:29:05;8.90;99.90
52381;DHT22;38310;52.796;6.942;2022-12-24T08:31:31;8.40;99.90
52381;DHT22;38310;52.796;6.942;2022-12-24T08:34:05;8.40;99.90
52381;DHT22;38310;52.796;6.942;2022-12-24T08:36:31;8.40;99.90
52381;DHT22;38310;52.796;6.942;2022-12-24T08:38:57;8.40;99.90
52381;DHT22;38310;52.796;6.942;2022-12-24T08:41:23;8.50;99.90
52381;DHT22;38310;52.796;6.942;2022-12-24T08:43:49;8.50;99.90
52381;DHT22;38310;52.796;6.942;2022-12-24T08:46:15;8.60;99.90
52381;DHT22;38310;52.796;6.942;2022-12-24T08:48:41;8.60;99.90
52381;DHT22;38310;52.796;6.942;2022-12-24T08:51:11;8.60;99.90
52381;DHT22;38310;52.796;6.942;2022-12-24T08:53:37;8.70;99.90
52381;DHT22;38310;52.796;6.942;2022-12-24T08:56:05;8.60;99.90
52381;DHT22;38310;52.796;6.942;2022-12-24T08:58:31;8.70;99.90
52381;DHT22;38310;52.796;6.942;2022-12-24T09:00:58;8.80;99.90
52381;DHT22;38310;52.796;6.942;2022-12-24T09:03:25;8.80;99.90
52381;DHT22;38310;52.796;6.942;2022-12-24T09:05:50;9.60;99.90
52381;DHT22;38310;52.796;6.942;2022-12-24T09:08:19;8.80;99.90
52381;DHT22;38310;52.796;6.942;2022-12-24T09:10:44;8.90;99.90
52381;DHT22;38310;52.796;6.942;2022-12-24T09:13:10;8.90;99.90
52381;DHT22;38310;52.796;6.942;2022-12-24T09:15:36;8.90;99.90
52381;DHT22;38310;52.796;6.942;2022-12-24T09:18:02;9.00;99.90
52381;DHT22;38310;52.796;6.942;2022-12-24T09:20:28;8.90;99.90
52381;DHT22;38310;52.796;6.942;2022-12-24T09:22:54;8.90;99.90
52381;DHT22;38310;52.796;6.942;2022-12-24T09:25:20;9.00;99.90
52381;DHT22;38310;52.796;6.942;2022-12-24T09:27:45;9.00;99.90
52381;DHT22;38310;52.796;6.942;2022-12-24T09:30:12;9.00;99.90
52381;DHT22;38310;52.796;6.942;2022-12-24T09:32:37;9.00;99.90
52381;DHT22;38310;52.796;6.942;2022-12-24T09:35:04;9.00;99.90
52381;DHT22;38310;52.796;6.942;2022-12-24T09:37:29;9.10;99.90
52381;DHT22;38310;52.796;6.942;2022-12-24T09:39:55;9.10;99.90
52381;DHT22;38310;52.796;6.942;2022-12-24T09:42:31;9.20;99.90
52381;DHT22;38310;52.796;6.942;2022-12-24T09:45:05;9.20;99.90
52381;DHT22;38310;52.796;6.942;2022-12-24T09:47:38;9.20;99.90
52381;DHT22;38310;52.796;6.942;2022-12-24T09:50:25;9.20;99.90
52381;DHT22;38310;52.796;6.942;2022-12-24T09:52:54;9.20;99.90
52381;DHT22;38310;52.796;6.942;2022-12-24T09:55:28;9.20;99.90
52381;DHT22;38310;52.796;6.942;2022-12-24T09:57:57;9.20;99.90
52381;DHT22;38310;52.796;6.942;2022-12-24T10:00:28;9.20;99.90
52381;DHT22;38310;52.796;6.942;2022-12-24T10:02:54;9.20;99.90
52381;DHT22;38310;52.796;6.942;2022-12-24T10:05:34;10.00;99.90
52381;DHT22;38310;52.796;6.942;2022-12-24T10:10:41;9.30;99.90
52381;DHT22;38310;52.796;6.942;2022-12-24T10:13:41;9.80;99.90
52381;DHT22;38310;52.796;6.942;2022-12-24T10:19:28;9.30;99.90
52381;DHT22;38310;52.796;6.942;2022-12-24T10:27:29;9.20;99.90
52381;DHT22;38310;52.796;6.942;2022-12-24T10:30:12;9.20;99.90
52381;DHT22;38310;52.796;6.942;2022-12-24T10:32:38;9.20;99.90
52381;DHT22;38310;52.796;6.942;2022-12-24T10:35:21;9.20;99.90
52381;DHT22;38310;52.796;6.942;2022-12-24T10:37:48;9.20;99.90
52381;DHT22;38310;52.796;6.942;2022-12-24T10:40:37;9.30;99.90
52381;DHT22;38310;52.796;6.942;2022-12-24T10:43:31;9.30;99.90
52381;DHT22;38310;52.796;6.942;2022-12-24T10:46:07;9.30;99.90
52381;DHT22;38310;52.796;6.942;2022-12-24T10:48:43;9.20;99.90
52381;DHT22;38310;52.796;6.942;2022-12-24T10:51:14;9.20;99.90
52381;DHT22;38310;52.796;6.942;2022-12-24T10:54:04;9.20;99.90
52381;DHT22;38310;52.796;6.942;2022-12-24T10:56:31;9.20;99.90
52381;DHT22;38310;52.796;6.942;2022-12-24T10:59:03;9.20;99.90
52381;DHT22;38310;52.796;6.942;2022-12-24T11:01:44;9.20;99.90
52381;DHT22;38310;52.796;6.942;2022-12-24T11:04:17;9.60;99.90
52381;DHT22;38310;52.796;6.942;2022-12-24T11:07:04;9.20;99.90
52381;DHT22;38310;52.796;6.942;2022-12-24T11:09:34;9.20;99.90
52381;DHT22;38310;52.796;6.942;2022-12-24T11:12:03;9.30;99.90
52381;DHT22;38310;52.796;6.942;2022-12-24T11:14:36;9.30;99.90
52381;DHT22;38310;52.796;6.942;2022-12-24T11:17:03;9.30;99.90
52381;DHT22;38310;52.796;6.942;2022-12-24T11:19:34;9.40;99.90
52381;DHT22;38310;52.796;6.942;2022-12-24T11:22:06;9.40;99.90
52381;DHT22;38310;52.796;6.942;2022-12-24T11:24:34;9.50;99.90
52381;DHT22;38310;52.796;6.942;2022-12-24T11:27:27;9.40;99.90
52381;DHT22;38310;52.796;6.942;2022-12-24T11:32:44;9.50;99.90
52381;DHT22;38310;52.796;6.942;2022-12-24T11:35:19;9.50;99.90
52381;DHT22;38310;52.796;6.942;2022-12-24T11:40:34;9.50;99.90
52381;DHT22;38310;52.796;6.942;2022-12-24T11:43:00;9.60;99.90
52381;DHT22;38310;52.796;6.942;2022-12-24T11:45:29;9.50;99.90
52381;DHT22;38310;52.796;6.942;2022-12-24T11:47:56;9.60;99.90
52381;DHT22;38310;52.796;6.942;2022-12-24T11:50:32;9.60;99.90
52381;DHT22;38310;52.796;6.942;2022-12-24T11:55:48;9.60;99.90
52381;DHT22;38310;52.796;6.942;2022-12-24T11:58:43;9.60;99.90
52381;DHT22;38310;52.796;6.942;2022-12-24T12:01:23;9.50;99.90
52381;DHT22;38310;52.796;6.942;2022-12-24T12:09:42;9.60;99.90
52381;DHT22;38310;52.796;6.942;2022-12-24T12:15:05;9.70;99.90
52381;DHT22;38310;52.796;6.942;2022-12-24T12:18:18;9.70;99.90
52381;DHT22;38310;52.796;6.942;2022-12-24T12:20:59;9.70;99.90
52381;DHT22;38310;52.796;6.942;2022-12-24T12:23:36;9.70;99.90
52381;DHT22;38310;52.796;6.942;2022-12-24T12:26:26;9.70;99.90
52381;DHT22;38310;52.796;6.942;2022-12-24T12:31:55;9.70;99.90
52381;DHT22;38310;52.796;6.942;2022-12-24T12:34:30;9.80;99.90
52381;DHT22;38310;52.796;6.942;2022-12-24T12:37:01;9.80;99.90
52381;DHT22;38310;52.796;6.942;2022-12-24T12:39:30;9.80;99.90
52381;DHT22;38310;52.796;6.942;2022-12-24T12:53:27;9.80;99.90
52381;DHT22;38310;52.796;6.942;2022-12-24T12:56:03;9.40;99.90
52381;DHT22;38310;52.796;6.942;2022-12-24T12:58:37;9.80;99.90
52381;DHT22;38310;52.796;6.942;2022-12-24T13:01:24;9.90;99.90
52381;DHT22;38310;52.796;6.942;2022-12-24T13:09:47;9.90;99.90
52381;DHT22;38310;52.796;6.942;2022-12-24T13:18:04;9.80;99.90
52381;DHT22;38310;52.796;6.942;2022-12-24T13:20:41;9.80;99.90
52381;DHT22;38310;52.796;6.942;2022-12-24T13:23:18;9.90;99.90
52381;DHT22;38310;52.796;6.942;2022-12-24T13:25:47;10.00;99.90
52381;DHT22;38310;52.796;6.942;2022-12-24T13:28:31;10.00;99.90
52381;DHT22;38310;52.796;6.942;2022-12-24T13:36:11;10.10;99.90
52381;DHT22;38310;52.796;6.942;2022-12-24T13:38:53;10.10;99.90
52381;DHT22;38310;52.796;6.942;2022-12-24T13:46:50;9.90;99.90
52381;DHT22;38310;52.796;6.942;2022-12-24T13:49:26;9.90;99.90
52381;DHT22;38310;52.796;6.942;2022-12-24T13:52:05;10.00;99.90
52381;DHT22;38310;52.796;6.942;2022-12-24T13:54:31;9.90;99.90
52381;DHT22;38310;52.796;6.942;2022-12-24T13:56:58;9.90;99.90
52381;DHT22;38310;52.796;6.942;2022-12-24T13:59:33;9.80;99.90
52381;DHT22;38310;52.796;6.942;2022-12-24T14:02:01;9.80;99.90
52381;DHT22;38310;52.796;6.942;2022-12-24T14:04:33;9.80;99.90
52381;DHT22;38310;52.796;6.942;2022-12-24T14:07:02;9.70;99.90
52381;DHT22;38310;52.796;6.942;2022-12-24T14:09:30;9.80;99.90
52381;DHT22;38310;52.796;6.942;2022-12-24T14:14:36;9.80;99.90
52381;DHT22;38310;52.796;6.942;2022-12-24T14:19:53;9.50;99.90
52381;DHT22;38310;52.796;6.942;2022-12-24T14:25:03;9.50;99.90
52381;DHT22;38310;52.796;6.942;2022-12-24T14:32:44;9.50;99.90
52381;DHT22;38310;52.796;6.942;2022-12-24T14:35:14;9.40;99.90
52381;DHT22;38310;52.796;6.942;2022-12-24T14:37:44;9.40;99.90
52381;DHT22;38310;52.796;6.942;2022-12-24T14:40:24;9.40;99.90
52381;DHT22;38310;52.796;6.942;2022-12-24T14:46:03;8.80;99.90
52381;DHT22;38310;52.796;6.942;2022-12-24T14:48:49;9.70;99.90
52381;DHT22;38310;52.796;6.942;2022-12-24T14:54:34;9.20;99.90
52381;DHT22;38310;52.796;6.942;2022-12-24T14:59:51;9.20;99.90
52381;DHT22;38310;52.796;6.942;2022-12-24T15:05:09;9.10;99.90
52381;DHT22;38310;52.796;6.942;2022-12-24T15:07:42;9.10;99.90
52381;DHT22;38310;52.796;6.942;2022-12-24T15:10:30;9.10;99.90
52381;DHT22;38310;52.796;6.942;2022-12-24T15:13:00;9.10;99.90
52381;DHT22;38310;52.796;6.942;2022-12-24T15:15:26;9.10;99.90
52381;DHT22;38310;52.796;6.942;2022-12-24T15:17:53;9.10;99.90
52381;DHT22;38310;52.796;6.942;2022-12-24T15:20:24;9.10;99.90
52381;DHT22;38310;52.796;6.942;2022-12-24T15:22:53;9.20;99.90
52381;DHT22;38310;52.796;6.942;2022-12-24T15:25:31;9.20;99.90
52381;DHT22;38310;52.796;6.942;2022-12-24T15:27:57;9.10;99.90
52381;DHT22;38310;52.796;6.942;2022-12-24T15:30:26;9.10;99.90
52381;DHT22;38310;52.796;6.942;2022-12-24T15:32:56;9.10;99.90
52381;DHT22;38310;52.796;6.942;2022-12-24T15:37:57;9.00;99.90
52381;DHT22;38310;52.796;6.942;2022-12-24T15:40:24;9.00;99.90
52381;DHT22;38310;52.796;6.942;2022-12-24T15:42:51;9.00;99.90
52381;DHT22;38310;52.796;6.942;2022-12-24T15:45:20;9.00;99.90
52381;DHT22;38310;52.796;6.942;2022-12-24T15:50:32;8.90;99.90
52381;DHT22;38310;52.796;6.942;2022-12-24T15:53:03;8.90;99.90
52381;DHT22;38310;52.796;6.942;2022-12-24T15:55:43;8.80;99.90
52381;DHT22;38310;52.796;6.942;2022-12-24T15:58:42;8.80;99.90
52381;DHT22;38310;52.796;6.942;2022-12-24T16:03:39;8.70;99.90
52381;DHT22;38310;52.796;6.942;2022-12-24T16:06:06;9.00;99.90
52381;DHT22;38310;52.796;6.942;2022-12-24T16:08:37;8.70;99.90
52381;DHT22;38310;52.796;6.942;2022-12-24T16:13:32;8.60;99.90
52381;DHT22;38310;52.796;6.942;2022-12-24T16:16:08;8.50;99.90
52381;DHT22;38310;52.796;6.942;2022-12-24T16:18:57;8.60;99.90
52381;DHT22;38310;52.796;6.942;2022-12-24T16:21:25;8.50;99.90
52381;DHT22;38310;52.796;6.942;2022-12-24T16:23:55;8.50;99.90
52381;DHT22;38310;52.796;6.942;2022-12-24T16:26:22;8.40;99.90
52381;DHT22;38310;52.796;6.942;2022-12-24T16:28:47;8.30;99.90
52381;DHT22;38310;52.796;6.942;2022-12-24T16:31:35;8.30;99.90
52381;DHT22;38310;52.796;6.942;2022-12-24T16:34:01;8.30;99.90
52381;DHT22;38310;52.796;6.942;2022-12-24T16:36:29;8.20;99.90
52381;DHT22;38310;52.796;6.942;2022-12-24T16:38:56;8.20;99.90
52381;DHT22;38310;52.796;6.942;2022-12-24T16:41:40;8.10;99.90
52381;DHT22;38310;52.796;6.942;2022-12-24T16:44:24;8.70;99.90
52381;DHT22;38310;52.796;6.942;2022-12-24T16:46:52;8.00;99.90
52381;DHT22;38310;52.796;6.942;2022-12-24T16:49:20;8.50;99.90
52381;DHT22;38310;52.796;6.942;2022-12-24T16:51:47;8.00;99.90
52381;DHT22;38310;52.796;6.942;2022-12-24T16:54:14;8.10;99.90
52381;DHT22;38310;52.796;6.942;2022-12-24T16:56:41;8.00;99.90
52381;DHT22;38310;52.796;6.942;2022-12-24T16:59:21;8.80;99.90
52381;DHT22;38310;52.796;6.942;2022-12-24T17:01:48;8.00;99.90
52381;DHT22;38310;52.796;6.942;2022-12-24T17:04:14;8.00;99.90
52381;DHT22;38310;52.796;6.942;2022-12-24T17:06:41;7.90;99.90
52381;DHT22;38310;52.796;6.942;2022-12-24T17:09:08;8.50;99.90
52381;DHT22;38310;52.796;6.942;2022-12-24T17:11:34;7.80;99.90
52381;DHT22;38310;52.796;6.942;2022-12-24T17:14:00;7.70;99.90
52381;DHT22;38310;52.796;6.942;2022-12-24T17:16:26;7.70;99.90
52381;DHT22;38310;52.796;6.942;2022-12-24T17:18:52;7.70;99.90
52381;DHT22;38310;52.796;6.942;2022-12-24T17:21:18;7.60;99.90
52381;DHT22;38310;52.796;6.942;2022-12-24T17:23:44;8.50;99.90
52381;DHT22;38310;52.796;6.942;2022-12-24T17:26:11;7.50;99.90
52381;DHT22;38310;52.796;6.942;2022-12-24T17:28:37;7.50;99.90
52381;DHT22;38310;52.796;6.942;2022-12-24T17:31:11;7.50;99.90
52381;DHT22;38310;52.796;6.942;2022-12-24T17:33:37;7.50;99.90
52381;DHT22;38310;52.796;6.942;2022-12-24T17:36:03;7.80;99.90
52381;DHT22;38310;52.796;6.942;2022-12-24T17:38:29;7.50;99.90
52381;DHT22;38310;52.796;6.942;2022-12-24T17:41:02;7.40;99.90
52381;DHT22;38310;52.796;6.942;2022-12-24T17:43:28;7.30;99.90
52381;DHT22;38310;52.796;6.942;2022-12-24T17:45:54;7.30;99.90
52381;DHT22;38310;52.796;6.942;2022-12-24T17:48:20;7.20;99.90
52381;DHT22;38310;52.796;6.942;2022-12-24T17:50:46;7.20;99.90
52381;DHT22;38310;52.796;6.942;2022-12-24T17:53:12;7.10;99.90
52381;DHT22;38310;52.796;6.942;2022-12-24T17:55:39;7.70;99.90
52381;DHT22;38310;52.796;6.942;2022-12-24T17:58:05;7.10;99.90
52381;DHT22;38310;52.796;6.942;2022-12-24T18:00:32;7.90;99.90